Viimsi — ES2084 — position and weather

sailwx.info

Track history (hours):
 
Tides and Currents Weather Stations Pressure Air Temp Water Temp Dewpoint Dewpoint Depression Visibility Wind Speed Wind Dir Waves Ship Positions

Viimsi

Last reported at 2015-May-07 04:33 UTC. Time now 2015-May-07 04:37 UTC.
Position N 59°28' E 024°43'.

Length 78 m; draft 4.9 m.

Type: Ship. MMSI: 276297000.

Date/timePositionNaut miles runAvg speedWind from/ knotsBaromVisibWave heightAir tempDewpointWater temp
2015-May-07 04:33N 59°28' E 024°43'0 0.0
2015-May-07 03:33N 59°28' E 024°43'5 5.4
2015-May-07 02:33N 59°33' E 024°42'4 4.3
2015-May-07 01:33N 59°36' E 024°48'0 0.2
2015-May-07 00:27N 59°36' E 024°48'0 0.0
2015-May-06 23:33N 59°36' E 024°48'0 0.0
2015-May-06 22:33N 59°36' E 024°48'0 0.0
2015-May-06 21:32N 59°36' E 024°48'0 0.0
2015-May-06 20:33N 59°35' E 024°48'1 0.9
2015-May-06 19:33N 59°35' E 024°49'0 0.0
2015-May-06 18:30N 59°35' E 024°49'0 0.0
2015-May-06 17:30N 59°35' E 024°49'0 0.0
2015-May-06 16:24N 59°35' E 024°49'0 0.3
2015-May-06 15:14N 59°35' E 024°49'0 0.0
2015-May-06 14:32N 59°35' E 024°49'0 0.0
2015-May-06 13:32N 59°35' E 024°49'0 0.0
2015-May-06 12:24N 59°35' E 024°49'0 0.3
2015-May-06 11:26N 59°34' E 024°49'3 3.6
2015-May-06 10:33N 59°37' E 024°46'8 7.5
2015-May-06 09:33N 59°30' E 024°40'2 2.2
2015-May-06 08:28N 59°28' E 024°39'0 0.0
2015-May-06 07:31N 59°28' E 024°39'0 0.0
2015-May-06 06:31N 59°28' E 024°39'0 0.0
2015-May-06 05:25N 59°28' E 024°39'0 0.0
2015-May-06 04:31N 59°28' E 024°39'0 0.0
2015-May-06 03:31N 59°28' E 024°39'0 0.0
2015-May-06 02:31N 59°28' E 024°39'0 0.0
2015-May-06 01:31N 59°28' E 024°39'0 0.0
2015-May-06 00:31N 59°28' E 024°39'0 0.0
2015-May-05 23:31N 59°28' E 024°39'0 0.0
2015-May-05 22:31N 59°28' E 024°39'0 0.0
2015-May-05 21:28N 59°28' E 024°39'0 0.0
2015-May-05 20:31N 59°28' E 024°39'0 0.0
2015-May-05 19:31N 59°28' E 024°39'0 0.0
2015-May-05 18:31N 59°28' E 024°39'0 0.0
2015-May-05 17:31N 59°28' E 024°39'0 0.0
2015-May-05 16:31N 59°28' E 024°39'0 0.0
2015-May-05 15:31N 59°28' E 024°39'0 0.0
2015-May-05 14:28N 59°28' E 024°39'0 0.0
2015-May-05 13:31N 59°28' E 024°39'0 0.0
2015-May-05 12:31N 59°28' E 024°39'0 0.0
2015-May-05 11:31N 59°28' E 024°39'0 0.0
2015-May-05 10:28N 59°28' E 024°39'0 0.0
2015-May-05 07:16N 59°28' E 024°39'0 0.0
2015-May-05 06:16N 59°28' E 024°39'3 4.0
2015-May-05 05:33N 59°30' E 024°43'2 2.2
2015-May-05 04:32N 59°28' E 024°42'0 0.0
2015-May-05 03:32N 59°28' E 024°42'0 0.0
2015-May-05 02:32N 59°28' E 024°42'0 0.0
2015-May-05 01:32N 59°28' E 024°42'0 0.0
2015-May-05 00:32N 59°28' E 024°42'0 0.0
2015-May-04 23:32N 59°28' E 024°42'0 0.0
2015-May-04 22:29N 59°28' E 024°42'0 0.0
2015-May-04 21:32N 59°28' E 024°42'0 0.0
2015-May-04 20:32N 59°28' E 024°42'0 0.0
2015-May-04 19:32N 59°28' E 024°42'0 0.0
2015-May-04 18:32N 59°28' E 024°42'0 0.0
2015-May-04 17:32N 59°28' E 024°42'0 0.0
2015-May-04 16:32N 59°28' E 024°42'0 0.0
2015-May-04 15:32N 59°28' E 024°42'0 0.0
2015-May-04 14:26N 59°28' E 024°42'0 0.0
2015-May-04 13:32N 59°28' E 024°42'0 0.0
2015-May-04 12:33N 59°28' E 024°43'2 2.2
2015-May-04 11:33N 59°27' E 024°47'0 0.0
2015-May-04 10:33N 59°27' E 024°47'0 0.0
2015-May-04 09:33N 59°27' E 024°47'0 0.0
2015-May-04 08:30N 59°27' E 024°47'0 0.5
2015-May-04 07:33N 59°27' E 024°46'2 1.9
2015-May-04 06:33N 59°28' E 024°42'0 0.0
2015-May-04 05:33N 59°28' E 024°42'0 0.0
2015-May-04 04:33N 59°28' E 024°42'0 0.0
2015-May-04 03:33N 59°28' E 024°42'0 0.0
2015-May-04 02:33N 59°28' E 024°42'0 0.0
2015-May-04 01:33N 59°28' E 024°42'0 0.0
2015-May-04 00:30N 59°28' E 024°42'0 0.0
2015-May-03 23:33N 59°28' E 024°42'0 0.0
2015-May-03 22:27N 59°28' E 024°42'0 0.0
2015-May-03 21:33N 59°28' E 024°42'0 0.0
2015-May-03 20:33N 59°28' E 024°42'0 0.0
2015-May-03 19:30N 59°28' E 024°42'2 2.6
2015-May-03 18:33N 59°30' E 024°40'2 1.9
2015-May-03 17:33N 59°28' E 024°39'0 0.0
2015-May-03 16:18N 59°28' E 024°39'0 0.0
2015-May-03 15:33N 59°28' E 024°39'0 0.0
2015-May-03 14:21N 59°28' E 024°39'0 0.0
2015-May-03 13:30N 59°28' E 024°39'0 0.0
2015-May-03 12:33N 59°28' E 024°39'3 3.1
2015-May-03 11:33N 59°29' E 024°45'2 2.0
2015-May-03 10:31N 59°27' E 024°46'0 0.0
2015-May-03 09:31N 59°27' E 024°46'0 0.0
2015-May-03 08:31N 59°27' E 024°46'1 1.1
2015-May-03 07:33N 59°28' E 024°45'0 0.1
2015-May-03 06:33N 59°28' E 024°45'0 0.0
2015-May-03 05:30N 59°28' E 024°45'0 0.0
2015-May-03 04:33N 59°28' E 024°45'0 0.0
2015-May-03 03:30N 59°28' E 024°45'0 0.0
2015-May-03 02:27N 59°28' E 024°45'3 3.7
2015-May-03 01:33N 59°30' E 024°41'3 2.7
2015-May-03 00:32N 59°29' E 024°35'0 0.0
2015-May-02 23:14N 59°29' E 024°35'0 0.1
2015-May-02 22:33N 59°29' E 024°35'1 0.9
2015-May-02 21:33N 59°30' E 024°37'0 0.0
2015-May-02 20:30N 59°30' E 024°37'0 0.1
2015-May-02 19:33N 59°30' E 024°37'9 8.9
2015-May-02 18:34N 59°38' E 024°43'4 4.3
2015-May-02 17:34N 59°35' E 024°50'0 0.0
2015-May-02 16:33N 59°35' E 024°50'0 0.0
2015-May-02 15:33N 59°35' E 024°50'0 0.0
2015-May-02 14:31N 59°35' E 024°50'0 0.0
2015-May-02 13:33N 59°35' E 024°50'0 0.1
2015-May-02 12:33N 59°35' E 024°50'1 0.5
2015-May-02 11:31N 59°35' E 024°50'0 0.0
2015-May-02 10:28N 59°35' E 024°50'0 0.1
2015-May-02 09:31N 59°34' E 024°50'0 0.0
2015-May-02 08:33N 59°34' E 024°50'0 0.0
2015-May-02 07:33N 59°34' E 024°50'0 0.0
2015-May-02 06:33N 59°34' E 024°50'0 0.0
2015-May-02 05:33N 59°34' E 024°50'0 0.0
2015-May-02 04:33N 59°34' E 024°50'0 0.0
2015-May-02 03:33N 59°34' E 024°50'0 0.0
2015-May-02 02:33N 59°34' E 024°50'1 1.3
2015-May-02 01:33N 59°36' E 024°48'4 4.3
2015-May-02 00:33N 59°32' E 024°44'7 5.7
2015-May-01 23:23N 59°29' E 024°32'0 0.0
2015-May-01 22:14N 59°29' E 024°32'0 0.0
2015-May-01 21:11N 59°29' E 024°32'0 0.1
2015-May-01 20:33N 59°29' E 024°32'4 3.7
2015-May-01 19:33N 59°28' E 024°39'0 0.0
2015-May-01 18:33N 59°28' E 024°39'0 0.0
2015-May-01 17:29N 59°28' E 024°39'0 0.0
2015-May-01 16:32N 59°28' E 024°39'0 0.0
2015-May-01 15:32N 59°28' E 024°39'3 3.4
2015-May-01 14:33N 59°31' E 024°38'7 7.2
2015-May-01 13:33N 59°36' E 024°48'1 1.1
2015-May-01 12:32N 59°35' E 024°49'0 0.0
2015-May-01 11:29N 59°36' E 024°49'0 0.0
2015-May-01 10:17N 59°36' E 024°49'0 0.0
2015-May-01 09:32N 59°36' E 024°49'0 0.0
2015-May-01 08:32N 59°36' E 024°49'0 0.0
2015-May-01 07:32N 59°36' E 024°49'0 0.0
2015-May-01 06:17N 59°36' E 024°49'0 0.1
2015-May-01 05:29N 59°36' E 024°49'3 3.0
2015-May-01 04:33N 59°34' E 024°54'2 0.2
2015-Apr-30 17:05N 59°32' E 024°55'610.5
2015-Apr-30 16:33N 59°36' E 024°48'7 6.7
2015-Apr-30 15:33N 59°31' E 024°42'3 3.1
2015-Apr-30 14:33N 59°28' E 024°39'0 0.0
2015-Apr-30 13:32N 59°28' E 024°39'0 0.0
2015-Apr-30 12:32N 59°28' E 024°39'0 0.0
2015-Apr-30 11:32N 59°28' E 024°39'3 3.2
2015-Apr-30 10:33N 59°29' E 024°33'1 0.0
2015-Apr-29 08:16N 59°30' E 024°33'4 5.2
2015-Apr-29 07:33N 59°28' E 024°39'0 0.0
2015-Apr-29 06:27N 59°28' E 024°39'0 0.0
2015-Apr-29 05:30N 59°28' E 024°39'0 0.0
2015-Apr-29 04:30N 59°28' E 024°39'0 0.0
2015-Apr-29 03:33N 59°28' E 024°39'0 0.0
2015-Apr-29 02:33N 59°28' E 024°39'0 0.0
2015-Apr-29 01:33N 59°28' E 024°39'0 0.0
2015-Apr-29 00:21N 59°28' E 024°39'0 0.0
2015-Apr-28 23:30N 59°28' E 024°39'0 0.0
2015-Apr-28 22:33N 59°28' E 024°39'0 0.0
2015-Apr-28 21:33N 59°28' E 024°39'0 0.0
2015-Apr-28 20:33N 59°28' E 024°39'0 0.0
2015-Apr-28 19:30N 59°28' E 024°39'0 0.0
2015-Apr-28 18:30N 59°28' E 024°39'0 0.0
2015-Apr-28 17:30N 59°28' E 024°39'0 0.0
2015-Apr-28 16:31N 59°28' E 024°39'2 2.3
2015-Apr-28 15:33N 59°28' E 024°43'0 0.3
2015-Apr-28 14:32N 59°28' E 024°43'0 0.0
2015-Apr-28 13:32N 59°28' E 024°43'0 0.0
2015-Apr-28 12:32N 59°28' E 024°43'0 0.0
2015-Apr-28 11:32N 59°28' E 024°43'0 0.0
2015-Apr-28 10:32N 59°28' E 024°43'0 0.0
2015-Apr-28 09:29N 59°28' E 024°43'0 0.0
2015-Apr-28 08:32N 59°28' E 024°43'0 0.0
2015-Apr-28 07:32N 59°28' E 024°43'0 0.0
2015-Apr-28 06:32N 59°28' E 024°43'0 0.0
2015-Apr-28 05:32N 59°28' E 024°43'0 0.0
2015-Apr-28 04:32N 59°28' E 024°43'0 0.0
2015-Apr-28 03:32N 59°28' E 024°43'0 0.0
2015-Apr-28 02:32N 59°28' E 024°43'0 0.0
2015-Apr-28 01:32N 59°28' E 024°43'0 0.0
2015-Apr-28 00:32N 59°28' E 024°43'0 0.0
2015-Apr-27 23:32N 59°28' E 024°43'0 0.0
2015-Apr-27 22:29N 59°28' E 024°43'0 0.0
2015-Apr-27 21:32N 59°28' E 024°43'0 0.0
2015-Apr-27 20:32N 59°28' E 024°43'0 0.0
2015-Apr-27 19:32N 59°28' E 024°43'0 0.0
2015-Apr-27 18:32N 59°28' E 024°43'0 0.0
2015-Apr-27 17:32N 59°28' E 024°43'0 0.0
2015-Apr-27 16:32N 59°28' E 024°43'0 0.0
2015-Apr-27 15:32N 59°28' E 024°43'0 0.0
2015-Apr-27 14:32N 59°28' E 024°43'0 0.0
2015-Apr-27 13:32N 59°28' E 024°43'0 0.0
2015-Apr-27 12:32N 59°28' E 024°43'2 2.1
2015-Apr-27 11:33N 59°27' E 024°46'0 0.0
2015-Apr-27 10:33N 59°27' E 024°46'0 0.0
2015-Apr-27 09:33N 59°27' E 024°46'0 0.0
2015-Apr-27 08:33N 59°27' E 024°46'2 1.9
2015-Apr-27 07:33N 59°28' E 024°43'0 0.4
2015-Apr-27 06:33N 59°28' E 024°42'0 0.0
2015-Apr-27 05:33N 59°28' E 024°42'0 0.0
2015-Apr-27 04:33N 59°28' E 024°42'  
Track history (hours):
 
Tides and Currents Weather Stations Pressure Air Temp Water Temp Dewpoint Dewpoint Depression Visibility Wind Speed Wind Dir Waves Ship Positions

Viimsi

Last reported at 2015-May-07 04:33 UTC. Time now 2015-May-07 04:37 UTC.
Position N 59°28' E 024°43'.

Length 78 m; draft 4.9 m.

Type: Ship. MMSI: 276297000.

Date/timePositionNaut miles runAvg speedWind from/ knotsBaromVisibWave heightAir tempDewpointWater temp
2015-May-07 04:33N 59°28' E 024°43'0 0.0
2015-May-07 03:33N 59°28' E 024°43'5 5.4
2015-May-07 02:33N 59°33' E 024°42'4 4.3
2015-May-07 01:33N 59°36' E 024°48'0 0.2
2015-May-07 00:27N 59°36' E 024°48'0 0.0
2015-May-06 23:33N 59°36' E 024°48'0 0.0
2015-May-06 22:33N 59°36' E 024°48'0 0.0
2015-May-06 21:32N 59°36' E 024°48'0 0.0
2015-May-06 20:33N 59°35' E 024°48'1 0.9
2015-May-06 19:33N 59°35' E 024°49'0 0.0
2015-May-06 18:30N 59°35' E 024°49'0 0.0
2015-May-06 17:30N 59°35' E 024°49'0 0.0
2015-May-06 16:24N 59°35' E 024°49'0 0.3
2015-May-06 15:14N 59°35' E 024°49'0 0.0
2015-May-06 14:32N 59°35' E 024°49'0 0.0
2015-May-06 13:32N 59°35' E 024°49'0 0.0
2015-May-06 12:24N 59°35' E 024°49'0 0.3
2015-May-06 11:26N 59°34' E 024°49'3 3.6
2015-May-06 10:33N 59°37' E 024°46'8 7.5
2015-May-06 09:33N 59°30' E 024°40'2 2.2
2015-May-06 08:28N 59°28' E 024°39'0 0.0
2015-May-06 07:31N 59°28' E 024°39'0 0.0
2015-May-06 06:31N 59°28' E 024°39'0 0.0
2015-May-06 05:25N 59°28' E 024°39'0 0.0
2015-May-06 04:31N 59°28' E 024°39'0 0.0
2015-May-06 03:31N 59°28' E 024°39'0 0.0
2015-May-06 02:31N 59°28' E 024°39'0 0.0
2015-May-06 01:31N 59°28' E 024°39'0 0.0
2015-May-06 00:31N 59°28' E 024°39'0 0.0
2015-May-05 23:31N 59°28' E 024°39'0 0.0
2015-May-05 22:31N 59°28' E 024°39'0 0.0
2015-May-05 21:28N 59°28' E 024°39'0 0.0
2015-May-05 20:31N 59°28' E 024°39'0 0.0
2015-May-05 19:31N 59°28' E 024°39'0 0.0
2015-May-05 18:31N 59°28' E 024°39'0 0.0
2015-May-05 17:31N 59°28' E 024°39'0 0.0
2015-May-05 16:31N 59°28' E 024°39'0 0.0
2015-May-05 15:31N 59°28' E 024°39'0 0.0
2015-May-05 14:28N 59°28' E 024°39'0 0.0
2015-May-05 13:31N 59°28' E 024°39'0 0.0
2015-May-05 12:31N 59°28' E 024°39'0 0.0
2015-May-05 11:31N 59°28' E 024°39'0 0.0
2015-May-05 10:28N 59°28' E 024°39'0 0.0
2015-May-05 07:16N 59°28' E 024°39'0 0.0
2015-May-05 06:16N 59°28' E 024°39'3 4.0
2015-May-05 05:33N 59°30' E 024°43'2 2.2
2015-May-05 04:32N 59°28' E 024°42'0 0.0
2015-May-05 03:32N 59°28' E 024°42'0 0.0
2015-May-05 02:32N 59°28' E 024°42'0 0.0
2015-May-05 01:32N 59°28' E 024°42'0 0.0
2015-May-05 00:32N 59°28' E 024°42'0 0.0
2015-May-04 23:32N 59°28' E 024°42'0 0.0
2015-May-04 22:29N 59°28' E 024°42'0 0.0
2015-May-04 21:32N 59°28' E 024°42'0 0.0
2015-May-04 20:32N 59°28' E 024°42'0 0.0
2015-May-04 19:32N 59°28' E 024°42'0 0.0
2015-May-04 18:32N 59°28' E 024°42'0 0.0
2015-May-04 17:32N 59°28' E 024°42'0 0.0
2015-May-04 16:32N 59°28' E 024°42'0 0.0
2015-May-04 15:32N 59°28' E 024°42'0 0.0
2015-May-04 14:26N 59°28' E 024°42'0 0.0
2015-May-04 13:32N 59°28' E 024°42'0 0.0
2015-May-04 12:33N 59°28' E 024°43'2 2.2
2015-May-04 11:33N 59°27' E 024°47'0 0.0
2015-May-04 10:33N 59°27' E 024°47'0 0.0
2015-May-04 09:33N 59°27' E 024°47'0 0.0
2015-May-04 08:30N 59°27' E 024°47'0 0.5
2015-May-04 07:33N 59°27' E 024°46'2 1.9
2015-May-04 06:33N 59°28' E 024°42'0 0.0
2015-May-04 05:33N 59°28' E 024°42'0 0.0
2015-May-04 04:33N 59°28' E 024°42'0 0.0
2015-May-04 03:33N 59°28' E 024°42'0 0.0
2015-May-04 02:33N 59°28' E 024°42'0 0.0
2015-May-04 01:33N 59°28' E 024°42'0 0.0
2015-May-04 00:30N 59°28' E 024°42'0 0.0
2015-May-03 23:33N 59°28' E 024°42'0 0.0
2015-May-03 22:27N 59°28' E 024°42'0 0.0
2015-May-03 21:33N 59°28' E 024°42'0 0.0
2015-May-03 20:33N 59°28' E 024°42'0 0.0
2015-May-03 19:30N 59°28' E 024°42'2 2.6
2015-May-03 18:33N 59°30' E 024°40'2 1.9
2015-May-03 17:33N 59°28' E 024°39'0 0.0
2015-May-03 16:18N 59°28' E 024°39'0 0.0
2015-May-03 15:33N 59°28' E 024°39'0 0.0
2015-May-03 14:21N 59°28' E 024°39'0 0.0
2015-May-03 13:30N 59°28' E 024°39'0 0.0
2015-May-03 12:33N 59°28' E 024°39'3 3.1
2015-May-03 11:33N 59°29' E 024°45'2 2.0
2015-May-03 10:31N 59°27' E 024°46'0 0.0
2015-May-03 09:31N 59°27' E 024°46'0 0.0
2015-May-03 08:31N 59°27' E 024°46'1 1.1
2015-May-03 07:33N 59°28' E 024°45'0 0.1
2015-May-03 06:33N 59°28' E 024°45'0 0.0
2015-May-03 05:30N 59°28' E 024°45'0 0.0
2015-May-03 04:33N 59°28' E 024°45'0 0.0
2015-May-03 03:30N 59°28' E 024°45'0 0.0
2015-May-03 02:27N 59°28' E 024°45'3 3.7
2015-May-03 01:33N 59°30' E 024°41'3 2.7
2015-May-03 00:32N 59°29' E 024°35'0 0.0
2015-May-02 23:14N 59°29' E 024°35'0 0.1
2015-May-02 22:33N 59°29' E 024°35'1 0.9
2015-May-02 21:33N 59°30' E 024°37'0 0.0
2015-May-02 20:30N 59°30' E 024°37'0 0.1
2015-May-02 19:33N 59°30' E 024°37'9 8.9
2015-May-02 18:34N 59°38' E 024°43'4 4.3
2015-May-02 17:34N 59°35' E 024°50'0 0.0
2015-May-02 16:33N 59°35' E 024°50'0 0.0
2015-May-02 15:33N 59°35' E 024°50'0 0.0
2015-May-02 14:31N 59°35' E 024°50'0 0.0
2015-May-02 13:33N 59°35' E 024°50'0 0.1
2015-May-02 12:33N 59°35' E 024°50'1 0.5
2015-May-02 11:31N 59°35' E 024°50'0 0.0
2015-May-02 10:28N 59°35' E 024°50'0 0.1
2015-May-02 09:31N 59°34' E 024°50'0 0.0
2015-May-02 08:33N 59°34' E 024°50'0 0.0
2015-May-02 07:33N 59°34' E 024°50'0 0.0
2015-May-02 06:33N 59°34' E 024°50'0 0.0
2015-May-02 05:33N 59°34' E 024°50'0 0.0
2015-May-02 04:33N 59°34' E 024°50'0 0.0
2015-May-02 03:33N 59°34' E 024°50'0 0.0
2015-May-02 02:33N 59°34' E 024°50'1 1.3
2015-May-02 01:33N 59°36' E 024°48'4 4.3
2015-May-02 00:33N 59°32' E 024°44'7 5.7
2015-May-01 23:23N 59°29' E 024°32'0 0.0
2015-May-01 22:14N 59°29' E 024°32'0 0.0
2015-May-01 21:11N 59°29' E 024°32'0 0.1
2015-May-01 20:33N 59°29' E 024°32'4 3.7
2015-May-01 19:33N 59°28' E 024°39'0 0.0
2015-May-01 18:33N 59°28' E 024°39'0 0.0
2015-May-01 17:29N 59°28' E 024°39'0 0.0
2015-May-01 16:32N 59°28' E 024°39'0 0.0
2015-May-01 15:32N 59°28' E 024°39'3 3.4
2015-May-01 14:33N 59°31' E 024°38'7 7.2
2015-May-01 13:33N 59°36' E 024°48'1 1.1
2015-May-01 12:32N 59°35' E 024°49'0 0.0
2015-May-01 11:29N 59°36' E 024°49'0 0.0
2015-May-01 10:17N 59°36' E 024°49'0 0.0
2015-May-01 09:32N 59°36' E 024°49'0 0.0
2015-May-01 08:32N 59°36' E 024°49'0 0.0
2015-May-01 07:32N 59°36' E 024°49'0 0.0
2015-May-01 06:17N 59°36' E 024°49'0 0.1
2015-May-01 05:29N 59°36' E 024°49'3 3.0
2015-May-01 04:33N 59°34' E 024°54'2 0.2
2015-Apr-30 17:05N 59°32' E 024°55'610.5
2015-Apr-30 16:33N 59°36' E 024°48'7 6.7
2015-Apr-30 15:33N 59°31' E 024°42'3 3.1
2015-Apr-30 14:33N 59°28' E 024°39'0 0.0
2015-Apr-30 13:32N 59°28' E 024°39'0 0.0
2015-Apr-30 12:32N 59°28' E 024°39'0 0.0
2015-Apr-30 11:32N 59°28' E 024°39'3 3.2
2015-Apr-30 10:33N 59°29' E 024°33'1 0.0
2015-Apr-29 08:16N 59°30' E 024°33'4 5.2
2015-Apr-29 07:33N 59°28' E 024°39'0 0.0
2015-Apr-29 06:27N 59°28' E 024°39'0 0.0
2015-Apr-29 05:30N 59°28' E 024°39'0 0.0
2015-Apr-29 04:30N 59°28' E 024°39'0 0.0
2015-Apr-29 03:33N 59°28' E 024°39'0 0.0
2015-Apr-29 02:33N 59°28' E 024°39'0 0.0
2015-Apr-29 01:33N 59°28' E 024°39'0 0.0
2015-Apr-29 00:21N 59°28' E 024°39'0 0.0
2015-Apr-28 23:30N 59°28' E 024°39'0 0.0
2015-Apr-28 22:33N 59°28' E 024°39'0 0.0
2015-Apr-28 21:33N 59°28' E 024°39'0 0.0
2015-Apr-28 20:33N 59°28' E 024°39'0 0.0
2015-Apr-28 19:30N 59°28' E 024°39'0 0.0
2015-Apr-28 18:30N 59°28' E 024°39'0 0.0
2015-Apr-28 17:30N 59°28' E 024°39'0 0.0
2015-Apr-28 16:31N 59°28' E 024°39'2 2.3
2015-Apr-28 15:33N 59°28' E 024°43'0 0.3
2015-Apr-28 14:32N 59°28' E 024°43'0 0.0
2015-Apr-28 13:32N 59°28' E 024°43'0 0.0
2015-Apr-28 12:32N 59°28' E 024°43'0 0.0
2015-Apr-28 11:32N 59°28' E 024°43'0 0.0
2015-Apr-28 10:32N 59°28' E 024°43'0 0.0
2015-Apr-28 09:29N 59°28' E 024°43'0 0.0
2015-Apr-28 08:32N 59°28' E 024°43'0 0.0
2015-Apr-28 07:32N 59°28' E 024°43'0 0.0
2015-Apr-28 06:32N 59°28' E 024°43'0 0.0
2015-Apr-28 05:32N 59°28' E 024°43'0 0.0
2015-Apr-28 04:32N 59°28' E 024°43'0 0.0
2015-Apr-28 03:32N 59°28' E 024°43'0 0.0
2015-Apr-28 02:32N 59°28' E 024°43'0 0.0
2015-Apr-28 01:32N 59°28' E 024°43'0 0.0
2015-Apr-28 00:32N 59°28' E 024°43'0 0.0
2015-Apr-27 23:32N 59°28' E 024°43'0 0.0
2015-Apr-27 22:29N 59°28' E 024°43'0 0.0
2015-Apr-27 21:32N 59°28' E 024°43'0 0.0
2015-Apr-27 20:32N 59°28' E 024°43'0 0.0
2015-Apr-27 19:32N 59°28' E 024°43'0 0.0
2015-Apr-27 18:32N 59°28' E 024°43'0 0.0
2015-Apr-27 17:32N 59°28' E 024°43'0 0.0
2015-Apr-27 16:32N 59°28' E 024°43'0 0.0
2015-Apr-27 15:32N 59°28' E 024°43'0 0.0
2015-Apr-27 14:32N 59°28' E 024°43'0 0.0
2015-Apr-27 13:32N 59°28' E 024°43'0 0.0
2015-Apr-27 12:32N 59°28' E 024°43'2 2.1
2015-Apr-27 11:33N 59°27' E 024°46'0 0.0
2015-Apr-27 10:33N 59°27' E 024°46'0 0.0
2015-Apr-27 09:33N 59°27' E 024°46'0 0.0
2015-Apr-27 08:33N 59°27' E 024°46'2 1.9
2015-Apr-27 07:33N 59°28' E 024°43'0 0.4
2015-Apr-27 06:33N 59°28' E 024°42'0 0.0
2015-Apr-27 05:33N 59°28' E 024°42'0 0.0
2015-Apr-27 04:33N 59°28' E 024°42'  

Dump ship's entire track history